Time;durP1;ratioP1;P1;durP2;ratioP2;P2;SDS_P1;SDS_P2;PMS_P1;PMS_P2;Temp;Humidity;BMP_temperature;BMP_pressure;BME280_temperature;BME280_humidity;BME280_pressure;Samples;Min_cycle;Max_cycle;Signal;HPM_P1;HPM_P2
2022/07/17 00:02:21;;;;;;;6.78;3.72;;;;;;;14.76;71.29;101879.63;5003271;28;20145;-84
2022/07/17 00:04:47;;;;;;;6.18;3.42;;;;;;;14.71;71.41;101883.69;5002311;28;20193;-82
2022/07/17 00:07:14;;;;;;;6.40;3.58;;;;;;;14.67;71.69;101880.53;5002433;28;20488;-83
2022/07/17 00:09:42;;;;;;;6.40;3.25;;;;;;;14.73;71.72;101879.94;5000936;28;20096;-84
2022/07/17 00:12:08;;;;;;;8.73;3.72;;;;;;;14.69;72.09;101885.66;5007057;28;20051;-83
2022/07/17 00:14:35;;;;;;;10.02;3.78;;;;;;;14.57;72.35;101885.91;5006256;28;20426;-85
2022/07/17 00:17:02;;;;;;;9.32;3.80;;;;;;;14.51;72.69;101883.88;5005504;28;20050;-82
2022/07/17 00:19:29;;;;;;;7.63;3.70;;;;;;;14.46;72.94;101890.56;5006383;28;20050;-83
2022/07/17 00:21:56;;;;;;;14.13;4.00;;;;;;;14.39;73.25;101886.84;5004583;28;20118;-82
2022/07/17 00:24:23;;;;;;;8.18;3.65;;;;;;;14.29;73.81;101894.81;5004474;28;20061;-83
2022/07/17 00:26:51;;;;;;;8.90;3.50;;;;;;;14.25;74.05;101882.94;4998891;28;20050;-83
2022/07/17 00:29:19;;;;;;;7.50;3.75;;;;;;;14.27;74.10;101889.69;4999514;28;20054;-82
2022/07/17 00:31:46;;;;;;;8.52;3.55;;;;;;;14.22;74.38;101881.41;5001356;28;20057;-83
2022/07/17 00:34:13;;;;;;;8.45;3.60;;;;;;;14.17;74.63;101883.69;5002308;28;20101;-83
2022/07/17 00:36:39;;;;;;;10.43;3.88;;;;;;;14.16;74.84;101884.69;5003871;28;20161;-85
2022/07/17 00:39:13;;;;;;;5.93;3.58;;;;;;;14.14;75.05;101881.38;5004607;28;20049;-82
2022/07/17 00:41:40;;;;;;;10.90;3.88;;;;;;;14.01;75.29;101864.28;5002743;28;20053;-84
2022/07/17 00:44:32;;;;;;;9.80;3.65;;;;;;;14.02;75.22;101872.00;5003047;28;20050;-83
2022/07/17 00:47:18;;;;;;;14.68;4.32;;;;;;;13.98;75.43;101865.41;5002975;28;20046;-83
2022/07/17 00:50:13;;;;;;;8.45;3.88;;;;;;;14.16;75.34;101895.22;4999945;28;20106;-85
2022/07/17 00:58:49;;;;;;;8.65;3.53;;;;;;;14.00;75.61;101857.34;4944764;29;20061;-83
2022/07/17 01:01:37;;;;;;;8.10;3.53;;;;;;;14.06;75.61;101869.91;4965698;28;20065;-84
2022/07/17 01:04:09;;;;;;;9.32;3.50;;;;;;;14.00;76.07;101865.25;4966749;28;20051;-83
2022/07/17 01:06:35;;;;;;;5.95;3.50;;;;;;;14.09;75.96;101886.25;4975261;28;20105;-83
2022/07/17 01:09:05;;;;;;;13.38;4.20;;;;;;;14.06;76.15;101877.81;5006959;28;20046;-83
2022/07/17 01:11:32;;;;;;;8.52;4.10;;;;;;;14.08;76.23;101891.66;5008301;28;20058;-84
2022/07/17 01:13:59;;;;;;;7.22;4.00;;;;;;;14.00;76.52;101836.28;5009679;28;20050;-83
2022/07/17 01:16:28;;;;;;;8.57;3.70;;;;;;;14.04;76.58;101859.53;5007966;28;20050;-83
2022/07/17 01:18:56;;;;;;;8.02;3.85;;;;;;;14.03;76.77;101868.41;5005711;28;20054;-83
2022/07/17 01:21:24;;;;;;;8.18;3.55;;;;;;;14.03;76.68;101857.88;5005381;28;20117;-83
2022/07/17 01:23:51;;;;;;;9.20;4.03;;;;;;;14.03;76.64;101860.50;5003355;28;20074;-84
2022/07/17 01:26:18;;;;;;;15.70;5.00;;;;;;;14.02;76.83;101860.66;5004612;28;20057;-82
2022/07/17 01:28:47;;;;;;;11.00;4.25;;;;;;;14.02;77.03;101858.84;5003662;28;20096;-83
2022/07/17 01:31:14;;;;;;;7.30;4.03;;;;;;;13.94;77.20;101864.03;5004372;28;20093;-82
2022/07/17 01:33:41;;;;;;;9.07;4.20;;;;;;;13.93;77.41;101862.38;5003499;28;20104;-84
2022/07/17 01:36:08;;;;;;;7.93;3.90;;;;;;;13.86;77.32;101861.31;5004163;28;20048;-83
2022/07/17 01:38:36;;;;;;;11.43;5.57;;;;;;;13.81;77.76;101855.66;5002802;28;20050;-83
2022/07/17 01:41:02;;;;;;;12.52;6.00;;;;;;;13.74;78.17;101854.59;5003940;28;20050;-83
2022/07/17 01:43:29;;;;;;;9.93;5.57;;;;;;;13.71;78.39;101857.50;5002465;28;20055;-84
2022/07/17 01:45:56;;;;;;;9.60;4.32;;;;;;;13.71;78.44;101853.06;5002951;28;20046;-84
2022/07/17 01:48:27;;;;;;;11.35;4.30;;;;;;;13.71;78.49;101852.25;5002701;28;20047;-83
2022/07/17 01:50:53;;;;;;;7.00;4.43;;;;;;;13.64;78.48;101854.66;5003703;28;20114;-82
2022/07/17 01:53:20;;;;;;;11.05;4.57;;;;;;;13.60;78.75;101858.56;5003225;28;20062;-83
2022/07/17 01:55:49;;;;;;;8.27;4.60;;;;;;;13.61;78.95;101858.41;5002370;28;20491;-82
2022/07/17 01:58:16;;;;;;;13.30;4.50;;;;;;;13.58;79.14;101852.59;5002599;28;20073;-85
2022/07/17 02:00:43;;;;;;;8.48;4.13;;;;;;;13.55;79.18;101847.63;5000745;28;20050;-84
2022/07/17 02:03:09;;;;;;;11.55;4.40;;;;;;;13.48;79.44;101852.66;5001234;28;20057;-85
2022/07/17 02:05:36;;;;;;;8.98;4.32;;;;;;;13.47;79.54;101851.00;4999719;28;20050;-83
2022/07/17 02:08:03;;;;;;;10.05;4.20;;;;;;;13.43;79.39;101849.63;4997525;28;20050;-83
2022/07/17 02:10:31;;;;;;;8.23;4.28;;;;;;;13.45;79.73;101854.72;4999555;28;20112;-82
2022/07/17 02:12:59;;;;;;;8.43;4.45;;;;;;;13.36;80.29;101848.53;5002504;28;20093;-81
2022/07/17 02:15:26;;;;;;;10.52;4.45;;;;;;;13.34;80.22;101850.47;5001465;28;20057;-82
2022/07/17 02:17:52;;;;;;;11.75;4.70;;;;;;;13.32;80.35;101851.59;5001855;28;20077;-82
2022/07/17 02:20:19;;;;;;;10.43;4.78;;;;;;;13.27;80.64;101849.41;5002533;28;20082;-83
2022/07/17 02:22:46;;;;;;;8.48;4.35;;;;;;;13.25;80.73;101849.53;5003082;28;20078;-82
2022/07/17 02:25:13;;;;;;;8.65;4.53;;;;;;;13.17;80.92;101851.25;5002936;28;20109;-83
2022/07/17 02:27:41;;;;;;;9.23;4.20;;;;;;;13.14;81.17;101846.25;5002394;28;20498;-83
2022/07/17 02:30:11;;;;;;;11.45;4.40;;;;;;;13.16;81.26;101850.44;5002701;28;20070;-83
2022/07/17 02:32:38;;;;;;;7.65;4.07;;;;;;;13.11;81.58;101850.00;5003416;28;20050;-82
2022/07/17 02:35:06;;;;;;;9.85;4.38;;;;;;;13.14;81.37;101854.97;5003414;28;20078;-84
2022/07/17 02:37:32;;;;;;;8.13;3.88;;;;;;;13.16;81.37;101846.97;5006587;28;20082;-82
2022/07/17 02:39:59;;;;;;;10.43;4.70;;;;;;;13.05;81.94;101854.97;5004833;28;20550;-81
2022/07/17 02:42:27;;;;;;;10.35;4.75;;;;;;;13.04;82.11;101848.91;5005845;28;20069;-84
2022/07/17 02:44:55;;;;;;;10.80;4.93;;;;;;;12.99;82.25;101847.66;4990574;28;20138;-83
2022/07/17 02:47:24;;;;;;;8.00;4.28;;;;;;;12.94;82.29;101854.16;5008623;28;20054;-83
2022/07/17 02:49:51;;;;;;;10.35;4.50;;;;;;;13.00;81.94;101855.41;5009600;28;20057;-84
2022/07/17 02:52:18;;;;;;;10.43;4.22;;;;;;;13.03;82.12;101856.91;5009827;28;20065;-83
2022/07/17 02:54:45;;;;;;;11.20;4.30;;;;;;;13.00;82.23;101849.31;5009410;28;20042;-81
2022/07/17 02:57:12;;;;;;;8.00;4.20;;;;;;;12.92;82.61;101860.53;5007875;28;20077;-82
2022/07/17 02:59:39;;;;;;;8.25;4.82;;;;;;;12.83;83.06;101861.38;5006205;28;20050;-82
2022/07/17 03:02:05;;;;;;;10.07;4.70;;;;;;;12.75;83.07;101867.34;5004988;28;20134;-84
2022/07/17 03:04:33;;;;;;;8.77;4.40;;;;;;;12.76;82.97;101876.88;5004490;28;20051;-81
2022/07/17 03:07:00;;;;;;;10.68;4.55;;;;;;;12.86;82.96;101868.97;5006812;28;20050;-83
2022/07/17 03:09:27;;;;;;;8.55;4.57;;;;;;;12.79;82.83;101866.06;5004667;28;20085;-82
2022/07/17 03:11:53;;;;;;;8.07;4.40;;;;;;;12.72;83.11;101869.44;5005191;28;20085;-81
2022/07/17 03:14:20;;;;;;;7.05;4.28;;;;;;;12.88;82.41;101859.16;5003854;28;20541;-81
2022/07/17 03:16:47;;;;;;;10.07;4.47;;;;;;;12.72;82.78;101854.50;5001060;28;20129;-81
2022/07/17 03:19:13;;;;;;;9.98;4.40;;;;;;;12.73;83.03;101876.34;5011656;28;20042;-84
2022/07/17 03:21:41;;;;;;;7.35;4.40;;;;;;;12.69;82.93;101875.78;5018802;28;20102;-81
2022/07/17 03:24:08;;;;;;;7.72;4.60;;;;;;;12.65;83.08;101873.59;5019007;28;20054;-84
2022/07/17 03:26:34;;;;;;;6.70;4.72;;;;;;;12.59;83.27;101877.59;5018701;28;20050;-80
2022/07/17 03:29:01;;;;;;;10.02;4.90;;;;;;;12.55;83.52;101873.56;5018170;28;20050;-82
2022/07/17 03:31:28;;;;;;;10.57;5.00;;;;;;;12.55;83.62;101878.84;5018242;28;20068;-81
2022/07/17 03:33:54;;;;;;;8.52;4.50;;;;;;;12.53;83.64;101876.34;5012259;28;20050;-81
2022/07/17 03:36:21;;;;;;;8.65;4.20;;;;;;;12.54;84.31;101877.16;5004979;28;20046;-79
2022/07/17 03:38:49;;;;;;;9.40;4.68;;;;;;;12.52;83.95;101868.59;5004436;28;20075;-80
2022/07/17 03:41:16;;;;;;;9.98;4.70;;;;;;;12.54;84.24;101875.38;5004107;28;20054;-81
2022/07/17 03:43:43;;;;;;;8.75;4.68;;;;;;;12.58;83.85;101889.88;5004767;28;20050;-83
2022/07/17 03:46:09;;;;;;;11.38;4.55;;;;;;;12.57;84.17;101890.84;5008410;28;20050;-84
2022/07/17 03:48:37;;;;;;;8.82;4.47;;;;;;;12.63;84.07;101900.81;5007717;28;20133;-83
2022/07/17 03:51:03;;;;;;;12.90;4.90;;;;;;;12.64;84.13;101891.13;5007770;28;20054;-83
2022/07/17 03:53:30;;;;;;;8.82;4.65;;;;;;;12.67;83.65;101888.22;5008022;28;20114;-82
2022/07/17 03:55:58;;;;;;;7.85;4.97;;;;;;;12.68;83.83;101894.31;5007331;28;20062;-83
2022/07/17 03:58:25;;;;;;;10.35;4.93;;;;;;;12.66;83.53;101901.50;5006248;28;20065;-82
2022/07/17 04:00:51;;;;;;;11.68;5.00;;;;;;;12.69;83.83;101912.56;5007305;28;20117;-83
2022/07/17 04:03:18;;;;;;;10.90;5.05;;;;;;;12.79;83.53;101913.34;5006890;28;20061;-82
2022/07/17 04:05:45;;;;;;;10.00;4.05;;;;;;;13.15;82.66;101903.94;5007360;28;20054;-82
2022/07/17 04:08:18;;;;;;;11.68;5.60;;;;;;;13.73;80.97;101908.16;5007613;28;20058;-84
2022/07/17 04:10:45;;;;;;;7.15;4.18;;;;;;;14.42;77.99;101913.75;5008576;28;20133;-84
2022/07/17 04:13:13;;;;;;;9.35;5.10;;;;;;;14.84;75.94;101905.22;5006587;28;20506;-83
2022/07/17 04:15:55;;;;;;;8.82;4.30;;;;;;;15.00;74.68;101892.19;5005156;28;20058;-82
2022/07/17 04:18:23;;;;;;;9.50;4.75;;;;;;;15.08;74.29;101891.41;5003094;28;20054;-83
2022/07/17 04:20:50;;;;;;;8.48;4.05;;;;;;;15.32;74.00;101903.91;5004627;28;20050;-81
2022/07/17 04:23:17;;;;;;;9.70;4.43;;;;;;;15.59;73.04;101907.22;5005822;28;20451;-82
2022/07/17 04:25:45;;;;;;;12.25;4.35;;;;;;;15.73;71.68;101903.13;5006774;28;20082;-84
2022/07/17 04:28:13;;;;;;;7.22;4.07;;;;;;;15.65;72.20;101907.56;5007192;28;20057;-83
2022/07/17 04:30:40;;;;;;;8.55;4.03;;;;;;;15.79;71.77;101899.03;5003839;28;20086;-82
2022/07/17 04:33:07;;;;;;;10.15;4.28;;;;;;;16.00;70.91;101903.91;5002344;28;20050;-84
2022/07/17 04:35:34;;;;;;;8.88;4.13;;;;;;;16.20;69.77;101906.09;5004020;28;20073;-83
2022/07/17 04:38:00;;;;;;;8.38;4.60;;;;;;;15.90;70.30;101901.41;5028134;23;20061;-82
2022/07/17 04:40:27;;;;;;;8.80;4.72;;;;;;;15.36;72.31;101884.97;5026182;28;20084;-82
2022/07/17 04:42:54;;;;;;;11.23;4.60;;;;;;;14.93;74.06;101883.22;5040740;28;20136;-81
2022/07/17 04:45:22;;;;;;;9.00;4.60;;;;;;;14.76;74.92;101891.97;5034816;28;20085;-83
2022/07/17 04:47:52;;;;;;;8.27;4.30;;;;;;;14.91;74.74;101909.72;5022795;28;20458;-83
2022/07/17 04:50:18;;;;;;;6.72;4.22;;;;;;;15.78;72.20;101923.78;5024942;28;20057;-80
2022/07/17 04:52:45;;;;;;;9.70;4.25;;;;;;;16.29;70.13;101919.31;5022902;28;20049;-81
2022/07/17 04:55:12;;;;;;;7.28;4.47;;;;;;;16.22;69.79;101909.41;5021390;28;20053;-81
2022/07/17 04:57:38;;;;;;;8.48;4.28;;;;;;;16.16;70.39;101915.31;5020838;28;20085;-82
2022/07/17 05:00:07;;;;;;;7.88;4.40;;;;;;;16.30;70.13;101913.88;5020570;28;20467;-82
2022/07/17 05:02:35;;;;;;;8.73;4.50;;;;;;;16.16;70.24;101904.75;5019901;28;20236;-82
2022/07/17 05:05:02;;;;;;;8.02;4.65;;;;;;;16.40;69.92;101913.72;5019459;28;20111;-82
2022/07/17 05:07:29;;;;;;;9.32;4.30;;;;;;;16.91;68.63;101912.63;5014050;28;20125;-82
2022/07/17 05:09:59;;;;;;;8.25;4.55;;;;;;;16.84;67.57;101909.81;5003238;28;20137;-82
2022/07/17 05:12:25;;;;;;;8.57;4.78;;;;;;;16.75;68.93;101912.63;5003544;28;20089;-81
2022/07/17 05:14:52;;;;;;;7.50;4.40;;;;;;;16.66;69.36;101917.06;5010822;28;20127;-83
2022/07/17 05:17:19;;;;;;;7.80;4.20;;;;;;;16.81;69.77;101931.31;5024183;28;20050;-83
2022/07/17 05:19:48;;;;;;;9.02;4.40;;;;;;;16.95;68.84;101931.63;5022843;28;20050;-83
2022/07/17 05:22:16;;;;;;;8.55;4.57;;;;;;;17.33;68.24;101940.66;5023918;28;20104;-83
2022/07/17 05:24:46;;;;;;;9.77;4.65;;;;;;;17.66;66.70;101936.97;5019661;28;20042;-81
2022/07/17 05:27:12;;;;;;;8.10;4.53;;;;;;;18.23;65.18;101950.78;5004390;28;20046;-83
2022/07/17 05:29:39;;;;;;;12.63;4.95;;;;;;;19.25;62.16;101961.97;5005569;28;20077;-81
2022/07/17 05:32:06;;;;;;;9.48;4.60;;;;;;;20.01;59.79;101963.44;5023858;28;20518;-81
2022/07/17 05:34:33;;;;;;;7.40;4.45;;;;;;;20.58;58.30;101973.31;5026092;28;20050;-79
2022/07/17 05:37:04;;;;;;;7.03;4.60;;;;;;;21.18;56.96;101977.34;5004682;28;20507;-83
2022/07/17 05:39:31;;;;;;;8.02;4.78;;;;;;;21.61;55.63;101966.59;5003014;28;20081;-82
2022/07/17 05:41:57;;;;;;;9.60;4.53;;;;;;;21.85;54.92;101963.41;5004493;28;20166;-82
2022/07/17 05:44:26;;;;;;;9.15;4.68;;;;;;;22.19;53.63;101959.91;5003267;28;20668;-83
2022/07/17 05:46:53;;;;;;;7.32;4.13;;;;;;;22.81;52.43;101970.28;5000724;28;20074;-83
2022/07/17 05:49:19;;;;;;;8.80;4.30;;;;;;;23.23;51.54;101972.75;4998321;28;20069;-83
2022/07/17 05:51:46;;;;;;;9.40;4.55;;;;;;;23.59;50.92;101977.66;4998420;28;20054;-85
2022/07/17 05:54:14;;;;;;;11.00;4.88;;;;;;;23.47;50.43;101970.25;4997664;28;20150;-85
2022/07/17 05:56:40;;;;;;;11.00;5.22;;;;;;;23.64;50.81;101978.66;4999736;28;20137;-84
2022/07/17 05:59:07;;;;;;;8.07;4.70;;;;;;;23.04;51.58;101974.41;5017276;28;20050;-84
2022/07/17 06:01:34;;;;;;;11.32;4.78;;;;;;;22.39;53.52;101968.75;5018031;28;20112;-84
2022/07/17 06:04:00;;;;;;;7.40;4.70;;;;;;;22.76;53.43;101967.38;5017650;28;20111;-84
2022/07/17 06:06:27;;;;;;;10.43;5.32;;;;;;;23.10;51.83;101968.25;5017310;28;20096;-83
2022/07/17 06:08:54;;;;;;;13.43;5.05;;;;;;;23.47;50.68;101972.91;5018696;28;20045;-84
2022/07/17 06:11:22;;;;;;;8.93;4.75;;;;;;;24.29;49.26;101986.66;5017676;28;20502;-84
2022/07/17 06:13:49;;;;;;;8.13;4.63;;;;;;;25.09;47.83;102007.31;5017295;28;20049;-85
2022/07/17 06:16:15;;;;;;;9.18;4.57;;;;;;;24.67;47.64;101978.59;5018593;28;20061;-83
2022/07/17 06:18:42;;;;;;;10.40;4.97;;;;;;;25.08;47.13;101978.06;5020867;28;20525;-83
2022/07/17 06:21:09;;;;;;;8.10;4.40;;;;;;;24.77;47.92;101974.41;5004404;28;20054;-83
2022/07/17 06:23:39;;;;;;;9.30;4.40;;;;;;;22.78;50.96;101944.00;5001741;28;20055;-83
2022/07/17 06:26:06;;;;;;;8.93;4.70;;;;;;;24.24;49.17;101963.19;5017550;28;20089;-83
2022/07/17 06:28:34;;;;;;;11.20;4.70;;;;;;;23.71;49.30;101966.09;5022582;28;20104;-81
2022/07/17 06:31:01;;;;;;;7.63;4.47;;;;;;;24.99;47.84;101984.78;5022792;28;20073;-83
2022/07/17 06:33:28;;;;;;;8.13;4.63;;;;;;;24.28;48.93;101952.91;5019371;28;20049;-84
2022/07/17 06:35:55;;;;;;;7.20;4.47;;;;;;;23.41;49.73;101933.69;5018610;28;20050;-84
2022/07/17 06:38:22;;;;;;;7.97;4.57;;;;;;;23.77;48.64;101943.88;5020578;28;20050;-82
2022/07/17 06:40:49;;;;;;;9.75;4.80;;;;;;;22.70;52.56;101938.84;5022610;28;20089;-82
2022/07/17 06:43:16;;;;;;;8.43;4.47;;;;;;;23.45;50.40;101945.59;5008652;28;20050;-81
2022/07/17 06:45:44;;;;;;;7.38;4.60;;;;;;;23.94;49.58;101957.59;5002115;28;20077;-82
2022/07/17 06:48:11;;;;;;;10.32;4.57;;;;;;;25.23;47.06;101965.16;5003181;28;20077;-82
2022/07/17 06:50:37;;;;;;;8.52;4.00;;;;;;;25.19;45.69;101953.25;5002899;28;20451;-82
2022/07/17 06:53:04;;;;;;;7.03;4.43;;;;;;;26.00;44.79;101954.84;5003640;28;20503;-83
2022/07/17 06:55:31;;;;;;;7.80;4.50;;;;;;;26.57;43.41;101956.09;5020085;28;20050;-83
2022/07/17 06:57:57;;;;;;;11.15;4.63;;;;;;;26.55;43.38;101950.16;5022240;28;20046;-82
2022/07/17 07:00:26;;;;;;;5.97;3.83;;;;;;;26.47;43.30;101944.31;5022484;28;20173;-83
2022/07/17 07:02:54;;;;;;;8.70;4.35;;;;;;;24.06;46.21;101913.09;5023424;28;20049;-82
2022/07/17 07:05:21;;;;;;;10.32;4.40;;;;;;;24.73;46.64;101935.72;5016283;28;20160;-84
2022/07/17 07:07:47;;;;;;;8.95;4.00;;;;;;;25.89;44.68;101937.66;4998230;28;20050;-83
2022/07/17 07:10:14;;;;;;;8.02;4.00;;;;;;;24.40;46.19;101911.88;5002432;28;20523;-82
2022/07/17 07:12:41;;;;;;;7.10;4.10;;;;;;;23.86;47.48;101904.34;5000555;28;20114;-83
2022/07/17 07:15:09;;;;;;;6.45;3.83;;;;;;;24.35;47.10;101929.63;4998916;28;20137;-84
2022/07/17 07:17:36;;;;;;;8.95;4.53;;;;;;;25.64;45.47;101953.03;4994971;28;20112;-84
2022/07/17 07:20:05;;;;;;;9.07;4.30;;;;;;;25.07;44.38;101922.88;4995891;28;20054;-84
2022/07/17 07:22:33;;;;;;;9.15;3.72;;;;;;;26.01;43.64;101940.38;4996105;28;20431;-84
2022/07/17 07:25:00;;;;;;;10.20;4.28;;;;;;;24.74;44.95;101915.94;5000137;28;20042;-85
2022/07/17 07:27:27;;;;;;;8.10;4.00;;;;;;;26.23;42.86;101940.72;5016249;28;20061;-84
2022/07/17 07:29:53;;;;;;;7.53;3.80;;;;;;;27.39;41.56;101948.94;5016388;28;20144;-83
2022/07/17 07:32:20;;;;;;;8.15;3.85;;;;;;;27.78;40.56;101957.31;5015459;28;20479;-86
2022/07/17 07:34:46;;;;;;;9.00;3.97;;;;;;;27.63;40.48;101947.03;5023780;28;20129;-84
2022/07/17 07:37:15;;;;;;;8.23;4.25;;;;;;;26.31;41.60;101919.78;5011501;28;20456;-83
2022/07/17 07:39:45;;;;;;;9.95;4.53;;;;;;;26.87;42.05;101934.56;5001192;28;20058;-83
2022/07/17 07:42:11;;;;;;;9.02;3.95;;;;;;;26.43;42.44;101928.69;5004035;28;20077;-85
2022/07/17 07:44:38;;;;;;;8.30;3.90;;;;;;;26.26;43.03;101902.69;5004462;28;20062;-83
2022/07/17 07:47:04;;;;;;;8.15;3.70;;;;;;;28.21;39.29;101912.91;4989943;28;20590;-82
2022/07/17 07:49:31;;;;;;;16.38;4.38;;;;;;;28.22;38.94;101919.97;5020747;28;20050;-82
2022/07/17 07:51:58;;;;;;;6.85;3.50;;;;;;;28.61;39.20;101935.16;5029835;28;20045;-83
2022/07/17 07:54:29;;;;;;;8.93;4.00;;;;;;;28.41;39.06;101924.84;5025908;28;20069;-83
2022/07/17 07:56:58;;;;;;;10.03;3.87;;;;;;;29.33;37.93;101947.81;5007388;28;20047;-82
2022/07/17 07:59:25;;;;;;;7.05;3.60;;;;;;;29.19;37.44;101936.59;5005770;28;20050;-82
2022/07/17 08:01:52;;;;;;;13.30;4.00;;;;;;;29.26;37.93;101931.84;5005664;28;20058;-82
2022/07/17 08:04:19;;;;;;;8.85;3.85;;;;;;;29.30;36.88;101932.16;5007456;28;20050;-82
2022/07/17 08:06:45;;;;;;;5.75;3.40;;;;;;;29.73;36.84;101950.25;5007935;28;20100;-80
2022/07/17 08:09:12;;;;;;;7.10;3.78;;;;;;;28.62;37.32;101939.47;5006553;28;20104;-83
2022/07/17 08:11:40;;;;;;;7.93;3.85;;;;;;;28.42;37.16;101955.28;5006632;28;20060;-83
2022/07/17 08:14:07;;;;;;;8.18;3.80;;;;;;;27.27;38.55;101928.50;5005066;28;20054;-83
2022/07/17 08:16:34;;;;;;;8.18;4.15;;;;;;;26.24;40.25;101934.28;5010566;28;20414;-83
2022/07/17 08:19:02;;;;;;;8.82;3.42;;;;;;;25.83;41.45;101946.59;5002389;28;20136;-83
2022/07/17 08:21:29;;;;;;;10.18;3.42;;;;;;;26.91;40.69;101951.03;4999742;28;20050;-84
2022/07/17 08:23:57;;;;;;;8.05;3.75;;;;;;;26.96;39.89;101948.47;5000937;28;20081;-84
2022/07/17 08:26:32;;;;;;;7.85;3.88;;;;;;;27.38;39.63;101965.31;5005060;28;20515;-83
2022/07/17 08:29:06;;;;;;;7.20;3.70;;;;;;;27.96;38.40;101951.72;5037497;23;20053;-82
2022/07/17 08:31:32;;;;;;;6.22;3.58;;;;;;;28.04;37.46;101969.38;5041335;28;20045;-83
2022/07/17 08:34:03;;;;;;;5.65;3.70;;;;;;;27.70;39.51;101963.88;5041779;28;20053;-83
2022/07/17 08:36:34;;;;;;;6.78;3.80;;;;;;;28.20;38.44;101954.34;5041416;28;20057;-83
2022/07/17 08:39:01;;;;;;;9.18;3.60;;;;;;;27.85;37.95;101941.84;5032864;28;20041;-84
2022/07/17 08:41:36;;;;;;;9.88;3.72;;;;;;;27.79;38.74;101942.81;5030790;28;20117;-83
2022/07/17 08:44:05;;;;;;;10.90;3.78;;;;;;;28.23;36.67;101967.34;5030695;23;20121;-77
2022/07/17 08:46:35;;;;;;;7.60;3.17;;;;;;;27.62;37.50;101953.47;4999999;28;20455;-78
2022/07/17 08:49:03;;;;;;;6.72;3.38;;;;;;;27.91;37.63;101967.78;4998468;28;20137;-77
2022/07/17 08:51:30;;;;;;;6.22;3.65;;;;;;;28.46;37.13;101977.16;4998705;28;20109;-76
2022/07/17 08:53:58;;;;;;;5.35;2.83;;;;;;;27.22;38.23;101953.41;5000840;28;20050;-76
2022/07/17 08:56:26;;;;;;;4.88;3.50;;;;;;;26.56;38.87;101954.47;4995584;28;20514;-77
2022/07/17 08:58:55;;;;;;;4.22;3.00;;;;;;;27.72;37.96;101985.97;4997083;28;20084;-78
2022/07/17 09:01:24;;;;;;;5.10;2.88;;;;;;;28.51;36.42;101975.38;4994563;28;20054;-78
2022/07/17 09:03:57;;;;;;;6.20;2.95;;;;;;;28.27;35.69;101965.81;4988549;28;20472;-78
2022/07/17 09:06:24;;;;;;;9.90;3.17;;;;;;;27.76;36.55;101948.66;4992231;28;20050;-77
2022/07/17 09:09:02;;;;;;;6.57;3.40;;;;;;;28.24;36.77;101948.25;4993407;28;20479;-78
2022/07/17 09:11:29;;;;;;;5.80;2.90;;;;;;;28.53;35.94;101959.78;4992241;28;20046;-80
2022/07/17 09:13:56;;;;;;;6.30;3.22;;;;;;;28.14;36.85;101934.59;4991971;28;20043;-76
2022/07/17 09:16:24;;;;;;;6.43;2.70;;;;;;;27.94;36.67;101943.09;4989890;28;20050;-78
2022/07/17 09:18:54;;;;;;;5.32;3.10;;;;;;;28.08;36.77;101944.44;4991718;28;20133;-78
2022/07/17 09:21:22;;;;;;;9.80;3.10;;;;;;;28.20;36.26;101932.81;4991634;28;20050;-79
2022/07/17 09:23:58;;;;;;;7.25;3.55;;;;;;;27.89;37.04;101928.72;4992930;28;20183;-77
2022/07/17 09:26:26;;;;;;;7.10;3.15;;;;;;;27.69;36.67;101926.47;4992168;28;20543;-75
2022/07/17 09:28:53;;;;;;;5.65;3.10;;;;;;;28.28;36.48;101940.53;4995361;28;20077;-78
2022/07/17 09:31:27;;;;;;;7.70;2.90;;;;;;;28.51;35.83;101950.31;4998495;28;20273;-78
2022/07/17 09:33:53;;;;;;;6.68;3.13;;;;;;;28.25;36.18;101935.63;5000086;28;20082;-79
2022/07/17 09:36:20;;;;;;;5.63;2.63;;;;;;;27.77;36.73;101934.16;4999425;28;20474;-79
2022/07/17 09:38:52;;;;;;;9.18;3.33;;;;;;;27.79;36.40;101937.44;4998366;28;20050;-78
2022/07/17 09:41:21;;;;;;;7.13;3.10;;;;;;;26.53;37.53;101909.31;4992963;28;20085;-79
2022/07/17 09:43:52;;;;;;;7.97;3.35;;;;;;;26.89;37.54;101916.34;4997257;28;20586;-79
2022/07/17 09:46:20;;;;;;;8.25;3.13;;;;;;;27.31;37.68;101930.50;4999484;28;20086;-80
2022/07/17 09:48:50;;;;;;;8.10;3.55;;;;;;;27.63;37.28;101941.66;4994727;28;20042;-79
2022/07/17 09:51:23;;;;;;;7.32;3.72;;;;;;;27.61;37.45;101929.53;5000768;28;20082;-78
2022/07/17 09:53:51;;;;;;;4.80;3.17;;;;;;;27.34;37.10;101930.03;4997280;28;20073;-78
2022/07/17 09:56:19;;;;;;;5.90;3.05;;;;;;;27.27;36.97;101918.56;4998728;28;20133;-80
2022/07/17 09:58:49;;;;;;;6.30;3.00;;;;;;;26.94;38.33;101903.03;4998609;28;20116;-79
2022/07/17 10:01:16;;;;;;;5.70;3.10;;;;;;;27.09;38.22;101910.66;4998615;28;20380;-79
2022/07/17 10:03:44;;;;;;;8.13;3.00;;;;;;;26.74;38.67;101903.38;4998471;28;20423;-79
2022/07/17 10:06:13;;;;;;;8.80;3.00;;;;;;;26.66;37.66;101900.22;4991966;28;20074;-77
2022/07/17 10:08:40;;;;;;;5.25;3.08;;;;;;;26.59;37.20;101911.06;4994153;28;20137;-77
2022/07/17 10:11:07;;;;;;;6.13;3.20;;;;;;;27.28;38.35;101914.84;4985358;28;20042;-79
2022/07/17 10:13:36;;;;;;;6.22;3.13;;;;;;;26.33;37.65;101906.94;5002922;28;20473;-77
2022/07/17 10:16:02;;;;;;;7.10;2.95;;;;;;;26.37;37.17;101915.34;5005320;28;20133;-78
2022/07/17 10:18:41;;;;;;;4.70;3.10;;;;;;;25.92;36.97;101915.75;4994921;28;20078;-77
2022/07/17 10:21:14;;;;;;;5.53;3.30;;;;;;;25.51;36.61;101918.31;4994842;28;20047;-77
2022/07/17 10:23:42;;;;;;;7.22;2.83;;;;;;;25.40;37.63;101907.28;4998906;28;20081;-78
2022/07/17 10:26:10;;;;;;;5.10;3.00;;;;;;;25.65;38.22;101909.09;5007306;28;20123;-77
2022/07/17 10:28:45;;;;;;;6.63;3.28;;;;;;;25.87;35.87;101939.75;5014419;28;20049;-77
2022/07/17 10:31:23;;;;;;;6.38;3.70;;;;;;;26.30;34.91;101941.44;4997075;28;20106;-78
2022/07/17 10:33:56;;;;;;;6.82;3.03;;;;;;;26.53;35.82;101938.00;4996338;28;20050;-77
2022/07/17 10:36:35;;;;;;;4.97;3.00;;;;;;;26.48;35.66;101935.19;5005361;28;20061;-77
2022/07/17 10:39:12;;;;;;;11.52;3.30;;;;;;;25.87;35.73;101929.03;4995669;28;20169;-76
2022/07/17 10:41:39;;;;;;;4.80;3.00;;;;;;;25.61;37.73;101905.19;4989186;28;20136;-76
2022/07/17 10:44:06;;;;;;;7.80;3.65;;;;;;;25.67;37.73;101907.00;4999565;28;20117;-77
2022/07/17 10:46:35;;;;;;;5.53;3.28;;;;;;;25.68;39.16;101925.53;5007038;28;20122;-77
2022/07/17 10:49:04;;;;;;;5.95;3.20;;;;;;;26.74;37.03;101937.47;4992731;28;20422;-76
2022/07/17 10:51:31;;;;;;;7.90;3.50;;;;;;;26.91;36.94;101925.00;4991960;28;20058;-77
2022/07/17 10:54:00;;;;;;;7.40;3.33;;;;;;;26.75;37.00;101923.00;4991779;28;20082;-77
2022/07/17 10:56:27;;;;;;;8.75;3.30;;;;;;;25.90;38.50;101893.72;4993172;28;20050;-77
2022/07/17 10:58:54;;;;;;;7.80;2.97;;;;;;;25.95;39.55;101914.50;4987399;28;20042;-76
2022/07/17 11:01:22;;;;;;;7.88;3.45;;;;;;;26.14;37.82;101918.75;5002749;28;20552;-79
2022/07/17 11:03:51;;;;;;;6.85;3.28;;;;;;;26.54;36.60;101929.72;4998295;28;20061;-78
2022/07/17 11:06:19;;;;;;;7.03;3.85;;;;;;;26.29;37.93;101915.66;4979814;28;20055;-76
2022/07/17 11:08:49;;;;;;;6.57;3.55;;;;;;;26.77;37.26;101915.53;4975060;28;20058;-77
2022/07/17 11:11:18;;;;;;;8.55;3.78;;;;;;;26.01;37.91;101892.09;4974101;28;20054;-77
2022/07/17 11:13:45;;;;;;;7.10;3.45;;;;;;;26.72;37.35;101913.53;5004296;28;20133;-78
2022/07/17 11:16:12;;;;;;;5.82;3.28;;;;;;;27.02;37.28;101915.31;4993660;28;20134;-77
2022/07/17 11:18:46;;;;;;;8.40;3.30;;;;;;;27.42;36.54;101910.81;4994328;28;20133;-76
2022/07/17 11:21:16;;;;;;;9.13;3.70;;;;;;;27.29;35.79;101924.53;4995821;28;20046;-77
2022/07/17 11:23:52;;;;;;;8.32;3.50;;;;;;;27.63;35.96;101924.72;4994892;28;20141;-77
2022/07/17 11:26:21;;;;;;;6.05;3.45;;;;;;;27.80;36.09;101917.53;4996213;28;20184;-78
2022/07/17 11:28:49;;;;;;;8.60;3.90;;;;;;;27.05;35.47;101907.59;4992056;28;20049;-77
2022/07/17 11:31:18;;;;;;;5.63;3.08;;;;;;;26.66;36.52;101890.28;4992145;28;20054;-78
2022/07/17 11:33:53;;;;;;;6.63;3.42;;;;;;;26.55;36.26;101893.78;4988092;28;20129;-77
2022/07/17 11:36:29;;;;;;;9.18;3.60;;;;;;;26.58;35.89;101887.94;5004721;28;20081;-76